Terminal Aerodrome Forecast
Issued by NWS

Home | Current Version | Previous Version | Text Only | Print | Product List | Glossary On
Versions: 1 2 3 4 5 6 7 8 9 10 11 12 13 14 15 16 17 18 19
217
FTUS43 KSGF 290520
TAFBBG
TAF
KBBG 290520Z 2906/3006 00000KT P6SM BKN250
     FM291300 08008KT P6SM VCSH SCT050 BKN120
     FM291600 10010KT P6SM -SHRA OVC020
     FM291800 11011KT 6SM -SHRA BR OVC008
     FM300000 11011KT 5SM -SHRA BR OVC007 WS020/17040KT=

USA.gov is the U.S. government's official web portal to all federal, state and local government web resources and services.